Time;durP1;ratioP1;P1;durP2;ratioP2;P2;SDS_P1;SDS_P2;PMS_P1;PMS_P2;Temp;Humidity;BMP_temperature;BMP_pressure;BME280_temperature;BME280_humidity;BME280_pressure;Samples;Min_cycle;Max_cycle;Signal;HPM_P1;HPM_P2
2023/07/24 00:02:15;;;;;;;5.77;2.67;;;18.50;99.90;;;;;;5027482;28;20173;-78
2023/07/24 00:04:41;;;;;;;4.00;2.87;;;18.50;99.90;;;;;;5033811;28;20188;-79
2023/07/24 00:07:06;;;;;;;3.47;2.80;;;18.50;99.90;;;;;;5018965;28;20199;-77
2023/07/24 00:09:32;;;;;;;2.60;2.40;;;18.50;99.90;;;;;;5016118;28;20173;-79
2023/07/24 00:11:57;;;;;;;6.70;2.83;;;18.50;99.90;;;;;;5016566;28;20697;-79
2023/07/24 00:14:23;;;;;;;3.97;3.30;;;18.50;99.90;;;;;;5013944;28;20181;-79
2023/07/24 00:16:48;;;;;;;5.87;3.03;;;18.50;99.90;;;;;;5014836;28;20196;-78
2023/07/24 00:19:14;;;;;;;3.13;2.57;;;18.50;99.90;;;;;;5016462;28;20231;-79
2023/07/24 00:21:40;;;;;;;4.03;3.10;;;18.50;99.90;;;;;;5015526;28;20169;-78
2023/07/24 00:24:05;;;;;;;4.27;3.13;;;18.40;99.90;;;;;;5015698;28;20165;-79
2023/07/24 00:26:31;;;;;;;3.93;2.90;;;18.50;99.90;;;;;;5016928;28;20177;-78
2023/07/24 00:28:56;;;;;;;3.90;3.10;;;18.40;99.90;;;;;;5015930;28;20181;-79
2023/07/24 00:31:22;;;;;;;8.87;3.20;;;18.40;99.90;;;;;;5013645;28;20205;-79
2023/07/24 00:33:47;;;;;;;4.97;3.03;;;18.40;99.90;;;;;;5015217;28;20554;-78
2023/07/24 00:36:13;;;;;;;5.53;3.40;;;18.30;99.90;;;;;;5016039;28;20665;-79
2023/07/24 00:38:39;;;;;;;4.00;3.30;;;18.30;99.90;;;;;;5015292;28;20681;-79
2023/07/24 00:41:04;;;;;;;5.83;2.93;;;18.30;99.90;;;;;;5016107;28;20603;-79
2023/07/24 00:43:30;;;;;;;7.40;2.90;;;18.30;99.90;;;;;;5016488;28;20204;-79
2023/07/24 00:45:57;;;;;;;3.83;2.80;;;18.20;99.90;;;;;;5015736;28;20181;-79
2023/07/24 00:48:23;;;;;;;4.80;2.50;;;18.20;99.90;;;;;;5016282;28;20695;-79
2023/07/24 00:50:49;;;;;;;3.17;2.87;;;18.10;99.90;;;;;;5016585;28;20196;-78
2023/07/24 00:53:16;;;;;;;10.03;3.17;;;18.20;99.90;;;;;;5015603;28;20268;-79
2023/07/24 00:55:42;;;;;;;8.30;3.33;;;18.10;99.90;;;;;;5014910;28;20603;-79
2023/07/24 00:58:11;;;;;;;7.17;2.70;;;18.10;99.90;;;;;;5016067;28;20169;-79
2023/07/24 01:00:40;;;;;;;6.97;3.20;;;18.10;99.90;;;;;;5014717;28;20225;-79
2023/07/24 01:03:06;;;;;;;4.93;2.90;;;18.00;99.90;;;;;;5014348;28;20664;-79
2023/07/24 01:05:32;;;;;;;5.67;2.90;;;18.00;99.90;;;;;;5014688;28;20649;-78
2023/07/24 01:07:57;;;;;;;5.43;2.93;;;17.90;99.90;;;;;;5015215;28;20223;-79
2023/07/24 01:10:23;;;;;;;6.30;2.50;;;17.90;99.90;;;;;;5016038;28;20545;-78
2023/07/24 01:13:04;;;;;;;3.70;3.03;;;17.90;99.90;;;;;;5014543;28;20224;-79
2023/07/24 01:15:34;;;;;;;4.53;2.83;;;17.90;99.90;;;;;;5015635;28;20656;-78
2023/07/24 01:18:03;;;;;;;3.53;3.10;;;17.90;99.90;;;;;;5013763;28;20193;-78
2023/07/24 01:20:30;;;;;;;4.57;2.73;;;17.90;99.90;;;;;;5011773;28;20203;-77
2023/07/24 01:23:15;;;;;;;3.67;2.67;;;17.90;99.90;;;;;;5015652;28;20177;-79
2023/07/24 01:26:02;;;;;;;4.90;3.20;;;17.90;99.90;;;;;;5014858;28;20259;-79
2023/07/24 01:28:28;;;;;;;5.93;3.07;;;17.90;99.90;;;;;;5014409;28;20169;-79
2023/07/24 01:30:54;;;;;;;6.07;2.97;;;17.90;99.90;;;;;;5013118;28;20255;-79
2023/07/24 01:33:21;;;;;;;3.70;3.00;;;17.90;99.90;;;;;;5015336;28;20228;-79
2023/07/24 01:35:50;;;;;;;4.07;2.97;;;17.90;99.90;;;;;;5014007;28;20223;-77
2023/07/24 01:38:16;;;;;;;4.47;3.03;;;17.90;99.90;;;;;;5015044;28;20653;-79
2023/07/24 01:40:42;;;;;;;8.63;3.40;;;17.80;99.90;;;;;;5015636;28;20221;-79
2023/07/24 01:43:08;;;;;;;3.83;2.87;;;17.80;99.90;;;;;;5013907;28;20185;-78
2023/07/24 01:45:34;;;;;;;3.80;2.80;;;17.80;99.90;;;;;;5013912;28;20195;-78
2023/07/24 01:48:00;;;;;;;5.27;2.73;;;17.80;99.90;;;;;;5013459;28;20207;-79
2023/07/24 01:50:25;;;;;;;9.63;3.03;;;17.80;99.90;;;;;;5015596;28;20200;-79
2023/07/24 01:52:51;;;;;;;3.60;3.03;;;17.80;99.90;;;;;;5013991;28;20210;-79
2023/07/24 01:55:16;;;;;;;6.20;3.00;;;17.70;99.90;;;;;;5015516;28;20193;-79
2023/07/24 01:57:42;;;;;;;3.43;2.50;;;17.80;99.90;;;;;;5014804;28;20613;-78
2023/07/24 02:00:08;;;;;;;3.73;3.33;;;17.80;99.90;;;;;;5014061;28;20735;-79
2023/07/24 02:02:33;;;;;;;4.00;3.50;;;17.70;99.90;;;;;;5014339;28;20181;-79
2023/07/24 02:04:59;;;;;;;5.43;3.43;;;17.70;99.90;;;;;;5014153;28;20187;-79
2023/07/24 02:07:25;;;;;;;4.17;3.33;;;17.70;99.90;;;;;;5015139;28;20200;-79
2023/07/24 02:09:50;;;;;;;5.50;3.17;;;17.80;99.90;;;;;;5014158;28;20235;-79
2023/07/24 02:12:16;;;;;;;5.43;3.23;;;17.70;99.90;;;;;;5014671;28;20176;-79
2023/07/24 02:14:41;;;;;;;5.13;3.10;;;17.70;99.90;;;;;;5019837;28;20188;-79
2023/07/24 02:17:07;;;;;;;5.30;3.23;;;17.70;99.90;;;;;;5032510;28;20216;-79
2023/07/24 02:19:32;;;;;;;6.90;3.67;;;17.80;99.90;;;;;;5024483;28;20211;-79
2023/07/24 02:21:58;;;;;;;4.53;3.40;;;17.80;99.90;;;;;;5014377;28;20187;-79
2023/07/24 02:24:23;;;;;;;6.47;3.70;;;17.80;99.90;;;;;;5015116;28;20176;-79
2023/07/24 02:26:49;;;;;;;6.43;3.13;;;17.80;99.90;;;;;;5015168;28;20177;-79
2023/07/24 02:29:14;;;;;;;4.40;3.93;;;17.80;99.90;;;;;;5014682;28;20181;-79
2023/07/24 02:31:40;;;;;;;8.23;4.70;;;17.80;99.90;;;;;;5012881;28;20215;-80
2023/07/24 02:34:05;;;;;;;8.10;3.83;;;17.80;99.90;;;;;;5012972;28;20238;-80
2023/07/24 02:36:31;;;;;;;5.07;3.40;;;17.80;99.90;;;;;;5014871;28;20212;-79
2023/07/24 02:38:56;;;;;;;8.60;3.90;;;17.80;99.90;;;;;;5014890;28;20243;-80
2023/07/24 02:41:22;;;;;;;6.00;3.50;;;17.90;99.90;;;;;;5014571;28;20636;-79
2023/07/24 02:43:47;;;;;;;9.10;4.10;;;17.90;99.90;;;;;;5013511;28;20645;-79
2023/07/24 02:46:13;;;;;;;7.80;3.60;;;17.80;99.90;;;;;;5013029;28;20552;-79
2023/07/24 02:48:39;;;;;;;7.10;3.87;;;17.80;99.90;;;;;;5012260;28;20184;-80
2023/07/24 02:51:04;;;;;;;6.07;3.90;;;17.90;99.90;;;;;;5014850;28;20199;-78
2023/07/24 02:53:30;;;;;;;6.37;3.60;;;17.90;99.90;;;;;;5014674;28;20533;-79
2023/07/24 02:55:55;;;;;;;8.60;4.23;;;17.90;99.90;;;;;;5012973;28;20177;-79
2023/07/24 02:58:21;;;;;;;6.17;3.90;;;17.90;99.90;;;;;;5014238;28;20211;-79
2023/07/24 03:00:47;;;;;;;8.90;4.33;;;17.90;99.90;;;;;;5013481;28;20211;-79
2023/07/24 03:03:12;;;;;;;8.33;4.50;;;17.90;99.90;;;;;;5013339;28;20173;-80
2023/07/24 03:05:38;;;;;;;5.67;4.07;;;17.90;99.90;;;;;;5012926;28;20561;-79
2023/07/24 03:08:03;;;;;;;9.70;4.30;;;18.00;99.90;;;;;;5013914;28;20609;-79
2023/07/24 03:10:29;;;;;;;11.37;4.60;;;18.10;99.90;;;;;;5013989;28;20188;-79
2023/07/24 03:12:54;;;;;;;6.00;3.83;;;17.90;99.90;;;;;;5013509;28;20537;-80
2023/07/24 03:15:20;;;;;;;7.17;4.50;;;18.00;99.90;;;;;;5014077;28;20192;-79
2023/07/24 03:17:45;;;;;;;8.63;4.20;;;18.00;99.90;;;;;;5012605;28;20235;-80
2023/07/24 03:20:18;;;;;;;9.27;4.73;;;18.00;99.90;;;;;;5012760;28;20240;-79
2023/07/24 03:22:45;;;;;;;6.10;4.60;;;18.00;99.90;;;;;;5014024;28;20227;-79
2023/07/24 03:25:10;;;;;;;5.70;4.13;;;18.00;99.90;;;;;;5014323;28;20169;-80
2023/07/24 03:27:36;;;;;;;6.43;5.10;;;18.00;99.90;;;;;;5014149;28;20175;-80
2023/07/24 03:30:03;;;;;;;9.17;4.63;;;18.00;99.90;;;;;;5014159;28;20264;-79
2023/07/24 03:32:28;;;;;;;7.43;4.90;;;18.00;99.90;;;;;;5011152;28;20192;-79
2023/07/24 03:34:54;;;;;;;8.07;4.50;;;17.90;99.90;;;;;;5012992;28;20196;-78
2023/07/24 03:37:20;;;;;;;6.47;4.53;;;18.00;99.90;;;;;;5013799;28;20211;-78
2023/07/24 03:39:45;;;;;;;7.80;5.13;;;18.20;99.90;;;;;;5014213;28;20204;-79
2023/07/24 03:42:14;;;;;;;11.77;4.30;;;18.00;99.90;;;;;;5014847;28;20173;-80
2023/07/24 03:44:40;;;;;;;6.03;4.30;;;18.20;99.90;;;;;;5012000;28;20173;-80
2023/07/24 03:47:06;;;;;;;6.37;4.30;;;18.00;99.90;;;;;;5018069;28;20258;-80
2023/07/24 03:49:32;;;;;;;8.90;4.93;;;18.00;99.90;;;;;;5017224;28;20210;-80
2023/07/24 03:51:57;;;;;;;6.93;4.03;;;18.00;99.90;;;;;;5016883;28;20212;-80
2023/07/24 03:54:23;;;;;;;9.77;4.33;;;18.00;99.90;;;;;;5018156;28;20184;-80
2023/07/24 03:56:48;;;;;;;8.60;4.63;;;18.00;99.90;;;;;;5016536;28;20208;-79
2023/07/24 03:59:14;;;;;;;10.20;4.43;;;17.90;99.90;;;;;;5015360;28;20212;-80
2023/07/24 04:01:40;;;;;;;8.03;4.60;;;18.00;99.90;;;;;;5018049;28;20263;-80
2023/07/24 04:04:05;;;;;;;8.73;4.40;;;18.00;99.90;;;;;;5016459;28;20169;-80
2023/07/24 04:06:31;;;;;;;7.67;4.63;;;18.00;99.90;;;;;;5016089;28;20187;-80
2023/07/24 04:08:56;;;;;;;7.53;4.53;;;18.00;99.90;;;;;;5017717;28;20712;-80
2023/07/24 04:11:22;;;;;;;6.97;5.20;;;18.00;99.90;;;;;;5016272;28;20210;-80
2023/07/24 04:13:47;;;;;;;6.47;4.70;;;18.00;99.90;;;;;;5014644;28;20193;-80
2023/07/24 04:16:13;;;;;;;12.57;5.07;;;18.00;99.90;;;;;;5016622;28;20218;-80
2023/07/24 04:18:38;;;;;;;7.87;4.30;;;18.00;99.90;;;;;;5017488;28;20213;-79
2023/07/24 04:21:04;;;;;;;8.60;5.00;;;18.00;99.90;;;;;;5017744;28;20255;-79
2023/07/24 04:23:29;;;;;;;9.73;5.07;;;18.00;99.90;;;;;;5018219;28;20177;-79
2023/07/24 04:25:55;;;;;;;8.23;5.07;;;18.00;99.90;;;;;;5018475;28;20540;-79
2023/07/24 04:28:20;;;;;;;8.37;4.97;;;18.00;99.90;;;;;;5019827;28;20180;-79
2023/07/24 04:30:46;;;;;;;7.27;4.53;;;18.00;99.90;;;;;;5034928;28;20243;-78
2023/07/24 04:33:11;;;;;;;8.67;5.10;;;18.00;99.90;;;;;;5028243;28;20173;-80
2023/07/24 04:35:37;;;;;;;9.17;4.90;;;18.00;99.90;;;;;;5015016;28;20201;-79
2023/07/24 04:38:02;;;;;;;9.00;5.77;;;17.90;99.90;;;;;;5015360;28;20188;-80
2023/07/24 04:40:29;;;;;;;10.10;4.87;;;18.00;99.90;;;;;;5015551;28;20325;-79
2023/07/24 04:42:54;;;;;;;8.77;4.90;;;17.90;99.90;;;;;;5015388;28;20223;-79
2023/07/24 04:45:20;;;;;;;10.53;5.00;;;17.90;99.90;;;;;;5016729;28;20181;-79
2023/07/24 04:47:46;;;;;;;7.50;5.00;;;18.00;99.90;;;;;;5014081;28;20185;-80
2023/07/24 04:50:11;;;;;;;9.77;5.20;;;18.00;99.90;;;;;;5014978;28;20557;-79
2023/07/24 04:52:37;;;;;;;11.40;5.60;;;17.90;99.90;;;;;;5014894;28;20184;-79
2023/07/24 04:55:02;;;;;;;12.80;5.30;;;17.90;99.90;;;;;;5015147;28;20181;-79
2023/07/24 04:57:28;;;;;;;10.37;5.27;;;18.00;99.90;;;;;;5016005;28;20187;-79
2023/07/24 04:59:53;;;;;;;7.33;4.87;;;17.90;99.90;;;;;;5014816;28;20205;-79
2023/07/24 05:02:19;;;;;;;9.60;5.73;;;18.00;99.90;;;;;;5014442;28;20184;-79
2023/07/24 05:04:44;;;;;;;7.43;4.60;;;18.00;99.90;;;;;;5015019;28;20268;-79
2023/07/24 05:07:10;;;;;;;12.63;5.10;;;18.00;99.90;;;;;;5014737;28;20173;-79
2023/07/24 05:09:35;;;;;;;10.87;5.17;;;18.00;99.90;;;;;;5016244;28;20192;-79
2023/07/24 05:12:01;;;;;;;8.03;4.83;;;18.00;99.90;;;;;;5016433;28;20181;-79
2023/07/24 05:14:27;;;;;;;11.90;5.20;;;18.00;99.90;;;;;;5016015;28;20183;-79
2023/07/24 05:16:52;;;;;;;8.30;4.73;;;18.00;99.90;;;;;;5016221;28;20177;-79
2023/07/24 05:19:18;;;;;;;11.67;5.13;;;18.00;99.90;;;;;;5013851;28;20755;-79
2023/07/24 05:21:43;;;;;;;8.67;5.47;;;18.00;99.90;;;;;;5014502;28;20177;-80
2023/07/24 05:24:09;;;;;;;9.47;5.13;;;18.00;99.90;;;;;;5014693;28;20306;-79
2023/07/24 05:26:38;;;;;;;8.93;5.00;;;18.00;99.90;;;;;;5016460;28;20178;-79
2023/07/24 05:29:04;;;;;;;11.87;5.13;;;18.00;99.90;;;;;;5015056;28;20181;-80
2023/07/24 05:31:29;;;;;;;8.00;5.00;;;18.00;99.90;;;;;;5016910;28;20258;-79
2023/07/24 05:33:55;;;;;;;8.97;5.07;;;18.00;99.90;;;;;;5015338;28;20212;-79
2023/07/24 05:36:20;;;;;;;11.40;5.10;;;18.10;99.90;;;;;;5015767;28;20271;-80
2023/07/24 05:38:46;;;;;;;9.33;5.17;;;18.10;99.90;;;;;;5014950;28;20635;-79
2023/07/24 05:41:11;;;;;;;8.60;4.97;;;18.10;99.90;;;;;;5014563;28;20193;-79
2023/07/24 05:43:37;;;;;;;10.97;5.20;;;18.10;99.90;;;;;;5014452;28;20181;-80
2023/07/24 05:46:02;;;;;;;8.37;5.37;;;18.10;99.90;;;;;;5013798;28;20193;-80
2023/07/24 05:48:28;;;;;;;8.13;4.60;;;18.00;99.90;;;;;;5016066;28;20181;-80
2023/07/24 05:50:53;;;;;;;8.93;5.30;;;18.30;99.90;;;;;;5013972;28;20201;-79
2023/07/24 05:53:19;;;;;;;12.20;5.00;;;18.20;99.90;;;;;;5014568;28;20187;-79
2023/07/24 05:55:44;;;;;;;7.67;4.73;;;18.20;99.90;;;;;;5014991;28;20185;-80
2023/07/24 05:58:11;;;;;;;9.30;5.67;;;18.20;99.90;;;;;;5014969;28;20189;-80
2023/07/24 06:00:36;;;;;;;11.20;5.40;;;18.20;99.90;;;;;;5013709;28;20208;-79
2023/07/24 06:03:03;;;;;;;8.80;4.90;;;18.30;99.90;;;;;;5015778;28;20169;-79
2023/07/24 06:05:28;;;;;;;8.37;5.17;;;18.30;99.90;;;;;;5013573;28;20180;-80
2023/07/24 06:07:54;;;;;;;7.20;5.30;;;18.30;99.90;;;;;;5014847;28;20543;-80
2023/07/24 06:10:20;;;;;;;10.20;5.60;;;18.30;99.90;;;;;;5014412;28;20203;-80
2023/07/24 06:12:45;;;;;;;5.97;4.53;;;18.40;99.90;;;;;;5014638;28;20177;-80
2023/07/24 06:15:11;;;;;;;10.50;4.57;;;18.40;99.90;;;;;;5013637;28;20641;-80
2023/07/24 06:17:36;;;;;;;8.37;5.13;;;18.40;99.90;;;;;;5015206;28;20185;-80
2023/07/24 06:20:02;;;;;;;8.17;5.33;;;18.40;99.90;;;;;;5014242;28;20236;-79
2023/07/24 06:22:27;;;;;;;11.53;5.80;;;18.50;99.90;;;;;;5014147;28;20181;-79
2023/07/24 06:24:53;;;;;;;8.73;4.63;;;18.50;99.90;;;;;;5014141;28;20187;-78
2023/07/24 06:27:18;;;;;;;7.47;5.00;;;18.50;99.90;;;;;;5013754;28;20226;-78
2023/07/24 06:29:44;;;;;;;8.37;4.63;;;18.50;99.90;;;;;;5015584;28;20201;-78
2023/07/24 06:32:09;;;;;;;6.53;4.83;;;18.50;99.90;;;;;;5013435;28;20632;-77
2023/07/24 06:34:35;;;;;;;7.77;5.07;;;18.50;99.90;;;;;;5013604;28;20224;-78
2023/07/24 06:37:01;;;;;;;7.57;4.80;;;18.60;99.90;;;;;;5012873;28;20589;-78
2023/07/24 06:39:28;;;;;;;7.30;4.93;;;18.60;99.90;;;;;;5013777;28;20672;-78
2023/07/24 06:41:54;;;;;;;8.40;4.40;;;18.60;99.90;;;;;;5021596;28;20204;-78
2023/07/24 06:44:20;;;;;;;6.27;4.80;;;18.60;99.90;;;;;;5021100;28;20211;-78
2023/07/24 06:46:45;;;;;;;7.17;4.93;;;18.70;99.90;;;;;;5017287;28;20177;-79
2023/07/24 06:49:11;;;;;;;5.07;4.50;;;18.70;99.90;;;;;;5014411;28;20228;-79
2023/07/24 06:51:38;;;;;;;6.53;4.73;;;18.80;99.90;;;;;;5013275;28;20228;-78
2023/07/24 06:54:04;;;;;;;9.27;4.80;;;18.80;99.90;;;;;;5013502;28;20177;-80
2023/07/24 06:56:30;;;;;;;6.97;3.93;;;19.00;99.90;;;;;;5014774;28;20184;-79
2023/07/24 06:58:55;;;;;;;7.67;4.50;;;18.90;99.90;;;;;;5012619;28;20778;-79
2023/07/24 07:01:21;;;;;;;8.03;4.23;;;18.90;99.90;;;;;;5012725;28;20193;-79
2023/07/24 07:03:46;;;;;;;4.67;3.93;;;18.90;99.90;;;;;;5012671;28;20169;-79
2023/07/24 07:06:15;;;;;;;8.53;4.17;;;18.90;99.90;;;;;;5014351;28;20173;-79
2023/07/24 07:08:40;;;;;;;7.13;4.13;;;18.90;99.90;;;;;;5014160;28;20177;-79
2023/07/24 07:11:06;;;;;;;5.27;4.10;;;18.90;99.90;;;;;;5012734;28;20537;-79
2023/07/24 07:13:31;;;;;;;7.20;4.13;;;18.90;99.90;;;;;;5012995;28;20542;-79
2023/07/24 07:15:57;;;;;;;4.83;4.17;;;18.80;99.90;;;;;;5014473;28;20180;-78
2023/07/24 07:18:22;;;;;;;6.53;3.60;;;18.80;99.90;;;;;;5013835;28;20208;-79
2023/07/24 07:20:49;;;;;;;4.67;3.60;;;18.80;99.90;;;;;;5016199;28;20220;-79
2023/07/24 07:23:15;;;;;;;4.67;3.80;;;18.80;99.90;;;;;;5017775;28;20664;-80
2023/07/24 07:25:43;;;;;;;4.03;3.27;;;18.70;99.90;;;;;;5018998;28;20173;-79
2023/07/24 07:28:09;;;;;;;7.17;3.97;;;18.80;99.90;;;;;;5017605;28;20723;-80
2023/07/24 07:30:34;;;;;;;5.30;3.63;;;18.80;99.90;;;;;;5017174;28;20197;-79
2023/07/24 07:33:00;;;;;;;5.43;3.80;;;18.80;99.90;;;;;;5019788;28;20204;-80
2023/07/24 07:35:26;;;;;;;5.50;3.80;;;18.90;99.90;;;;;;5019946;28;20184;-79
2023/07/24 07:37:51;;;;;;;6.33;3.80;;;18.90;99.90;;;;;;5017584;28;20173;-79
2023/07/24 07:40:17;;;;;;;4.77;3.37;;;18.90;99.90;;;;;;5018540;28;20204;-79
2023/07/24 07:42:44;;;;;;;5.27;3.80;;;19.00;99.90;;;;;;5019161;28;20173;-80
2023/07/24 07:45:10;;;;;;;6.33;3.70;;;19.00;99.90;;;;;;5018818;28;20653;-79
2023/07/24 07:47:36;;;;;;;6.03;3.67;;;18.90;99.90;;;;;;5019162;28;20176;-79
2023/07/24 07:50:01;;;;;;;5.70;3.63;;;19.00;99.90;;;;;;5020309;28;20196;-80
2023/07/24 07:52:27;;;;;;;3.90;3.07;;;19.10;99.90;;;;;;5018183;28;20180;-80
2023/07/24 07:54:52;;;;;;;3.93;3.53;;;19.10;99.90;;;;;;5018587;28;20173;-79
2023/07/24 07:57:18;;;;;;;6.53;3.37;;;19.10;99.90;;;;;;5018858;28;20193;-79
2023/07/24 07:59:44;;;;;;;6.93;3.63;;;19.10;99.90;;;;;;5018561;28;20274;-78
2023/07/24 08:02:09;;;;;;;5.20;3.43;;;19.10;99.90;;;;;;5018337;28;20169;-79
2023/07/24 08:04:35;;;;;;;4.40;3.10;;;19.00;99.90;;;;;;5018415;28;20295;-80
2023/07/24 08:07:03;;;;;;;6.37;4.43;;;19.00;99.90;;;;;;5017875;28;20600;-79
2023/07/24 08:09:28;;;;;;;5.57;3.90;;;18.90;99.90;;;;;;5016982;28;20239;-79
2023/07/24 08:11:54;;;;;;;4.23;3.70;;;18.80;99.90;;;;;;5017670;28;20189;-78
2023/07/24 08:14:19;;;;;;;5.20;3.77;;;18.60;99.90;;;;;;5017310;28;20556;-79
2023/07/24 08:16:48;;;;;;;6.23;4.30;;;18.70;99.90;;;;;;5015968;28;20181;-77
2023/07/24 08:19:14;;;;;;;5.67;4.17;;;18.70;99.90;;;;;;5017495;28;20205;-78
2023/07/24 08:21:40;;;;;;;6.27;4.30;;;18.80;99.90;;;;;;5017484;28;20271;-79
2023/07/24 08:24:05;;;;;;;5.13;4.00;;;18.90;99.90;;;;;;5017429;28;20252;-79
2023/07/24 08:26:31;;;;;;;5.23;3.97;;;18.90;99.90;;;;;;5017582;28;20276;-79
2023/07/24 08:28:57;;;;;;;4.90;3.43;;;19.10;99.90;;;;;;5016235;28;20190;-79
2023/07/24 08:31:22;;;;;;;6.67;3.20;;;19.10;99.90;;;;;;5016409;28;20343;-79
2023/07/24 08:33:48;;;;;;;4.50;2.87;;;19.00;99.90;;;;;;5016327;28;20185;-79
2023/07/24 08:36:13;;;;;;;4.33;2.70;;;19.00;99.90;;;;;;5017268;28;20193;-80
2023/07/24 08:38:40;;;;;;;5.63;2.80;;;19.00;99.90;;;;;;5016107;28;20207;-79
2023/07/24 08:41:10;;;;;;;6.73;3.80;;;19.00;99.90;;;;;;5017414;28;20672;-79
2023/07/24 08:43:39;;;;;;;4.60;3.50;;;19.00;99.90;;;;;;5017879;28;20648;-79
2023/07/24 08:46:05;;;;;;;3.70;2.93;;;19.10;99.90;;;;;;5017769;28;20176;-79
2023/07/24 08:48:36;;;;;;;3.90;3.40;;;19.00;99.90;;;;;;5016756;28;20188;-80
2023/07/24 08:51:04;;;;;;;9.13;4.10;;;19.10;99.90;;;;;;5016827;28;20205;-79
2023/07/24 08:53:30;;;;;;;4.90;3.90;;;19.10;99.90;;;;;;5018529;28;20181;-79
2023/07/24 08:55:56;;;;;;;5.17;3.63;;;19.20;99.90;;;;;;5020310;28;20173;-79
2023/07/24 08:58:22;;;;;;;7.03;3.53;;;19.30;99.90;;;;;;5026811;28;20192;-80
2023/07/24 09:00:48;;;;;;;3.97;3.07;;;19.40;99.90;;;;;;5018972;28;20197;-79
2023/07/24 09:03:13;;;;;;;5.57;3.10;;;19.50;99.90;;;;;;5017294;28;20169;-80
2023/07/24 09:05:39;;;;;;;2.87;2.50;;;19.50;99.90;;;;;;5017527;28;20188;-79
2023/07/24 09:08:04;;;;;;;4.37;2.40;;;19.40;99.90;;;;;;5016795;28;20180;-80
2023/07/24 09:10:30;;;;;;;3.40;2.37;;;19.50;99.90;;;;;;5017443;28;20320;-79
2023/07/24 09:12:56;;;;;;;3.60;2.80;;;19.50;99.90;;;;;;5016066;28;20264;-79
2023/07/24 09:15:21;;;;;;;3.33;2.30;;;19.50;99.90;;;;;;5017036;28;20173;-80
2023/07/24 09:17:51;;;;;;;3.17;2.80;;;19.50;99.90;;;;;;5022366;28;20536;-79
2023/07/24 09:20:20;;;;;;;3.17;2.33;;;19.40;99.90;;;;;;5027586;28;20235;-79
2023/07/24 09:22:53;;;;;;;5.00;2.40;;;19.50;99.90;;;;;;5016001;28;20176;-78
2023/07/24 09:25:29;;;;;;;2.97;2.10;;;19.50;99.90;;;;;;5015277;28;20169;-79
2023/07/24 09:27:54;;;;;;;3.43;2.00;;;19.40;99.90;;;;;;5013509;28;20163;-78
2023/07/24 09:30:23;;;;;;;3.40;2.00;;;19.40;99.90;;;;;;5013196;28;20295;-79
2023/07/24 09:32:55;;;;;;;2.20;2.00;;;19.40;99.90;;;;;;5013097;28;20554;-78
2023/07/24 09:35:28;;;;;;;3.47;2.20;;;19.40;99.90;;;;;;5014367;28;20239;-78
2023/07/24 09:38:04;;;;;;;4.97;2.23;;;19.40;99.90;;;;;;5014927;28;20227;-77
2023/07/24 09:40:38;;;;;;;3.20;2.10;;;19.50;99.90;;;;;;5015959;28;20304;-78
2023/07/24 09:43:20;;;;;;;2.23;2.03;;;19.60;99.90;;;;;;5015386;28;20652;-78
2023/07/24 09:45:47;;;;;;;2.80;2.33;;;19.60;99.90;;;;;;5015510;28;20537;-79
2023/07/24 09:48:14;;;;;;;2.90;2.47;;;19.70;99.90;;;;;;5012997;28;20173;-79
2023/07/24 09:50:41;;;;;;;4.37;2.70;;;19.60;99.90;;;;;;5015307;28;20554;-79
2023/07/24 09:53:12;;;;;;;4.27;2.57;;;19.60;99.90;;;;;;5013853;28;20172;-79
2023/07/24 09:55:45;;;;;;;3.70;2.77;;;19.60;99.90;;;;;;5014849;28;20162;-79
2023/07/24 09:58:11;;;;;;;3.00;2.50;;;19.70;99.90;;;;;;5013540;28;20162;-79
2023/07/24 10:00:37;;;;;;;6.50;2.53;;;19.80;99.90;;;;;;5014609;28;20189;-79
2023/07/24 10:03:04;;;;;;;5.97;2.73;;;19.70;99.90;;;;;;5015149;28;20235;-78
2023/07/24 10:05:29;;;;;;;3.63;2.37;;;19.80;99.90;;;;;;5015235;28;20173;-79
2023/07/24 10:07:55;;;;;;;5.10;2.80;;;19.80;99.90;;;;;;5014573;28;20337;-79
2023/07/24 10:10:22;;;;;;;4.63;2.57;;;19.80;99.90;;;;;;5013515;28;20292;-79
2023/07/24 10:12:49;;;;;;;3.27;2.80;;;19.90;99.90;;;;;;5013332;28;20605;-79
2023/07/24 10:15:14;;;;;;;3.07;2.80;;;20.10;99.90;;;;;;5013979;28;20177;-79
2023/07/24 10:17:41;;;;;;;4.87;3.03;;;20.10;99.90;;;;;;5013044;28;20181;-78
2023/07/24 10:20:11;;;;;;;3.87;3.03;;;20.20;99.90;;;;;;5014809;28;20208;-79
2023/07/24 10:22:41;;;;;;;5.13;2.77;;;20.20;99.90;;;;;;5015401;28;20180;-78
2023/07/24 10:25:08;;;;;;;3.13;2.60;;;20.30;99.90;;;;;;5016598;28;20156;-79
2023/07/24 10:27:42;;;;;;;6.30;3.47;;;20.30;99.90;;;;;;5021968;28;20568;-78
2023/07/24 10:30:08;;;;;;;3.57;3.00;;;20.50;99.90;;;;;;5021757;28;20216;-80
2023/07/24 10:32:33;;;;;;;6.50;3.17;;;20.50;99.90;;;;;;5019594;28;20674;-78
2023/07/24 10:35:09;;;;;;;5.27;3.07;;;20.50;99.90;;;;;;5020218;28;20243;-79
2023/07/24 10:37:37;;;;;;;8.53;2.80;;;20.40;99.90;;;;;;5023285;28;20168;-79
2023/07/24 10:40:04;;;;;;;4.43;3.00;;;20.30;99.90;;;;;;5018140;28;20216;-78
2023/07/24 10:42:30;;;;;;;3.27;2.80;;;20.20;99.90;;;;;;5012916;28;20181;-79
2023/07/24 10:45:06;;;;;;;3.77;3.07;;;20.10;99.90;;;;;;5014445;28;20172;-78
2023/07/24 10:47:32;;;;;;;7.33;3.17;;;20.10;99.90;;;;;;5014134;28;20556;-79
2023/07/24 10:49:58;;;;;;;5.63;3.40;;;20.10;99.90;;;;;;5014463;28;20192;-79
2023/07/24 10:52:33;;;;;;;7.33;3.10;;;20.10;99.90;;;;;;5014607;28;20165;-79
2023/07/24 10:55:05;;;;;;;6.03;3.27;;;20.10;99.90;;;;;;5013471;28;20172;-78
2023/07/24 10:57:31;;;;;;;5.23;3.27;;;20.00;99.90;;;;;;5014868;28;20184;-79
2023/07/24 10:59:57;;;;;;;4.07;3.13;;;20.00;99.90;;;;;;5014185;28;20758;-79
2023/07/24 11:02:23;;;;;;;7.23;3.77;;;20.10;99.90;;;;;;5015057;28;20169;-80
2023/07/24 11:04:49;;;;;;;4.37;3.27;;;20.10;99.90;;;;;;5012693;28;20671;-78
2023/07/24 11:07:15;;;;;;;4.30;3.53;;;20.20;99.90;;;;;;5013979;28;20197;-79
2023/07/24 11:09:40;;;;;;;5.23;3.73;;;20.20;99.90;;;;;;5014006;28;20216;-79
2023/07/24 11:12:10;;;;;;;5.13;3.50;;;20.10;99.90;;;;;;5022859;28;20184;-79
2023/07/24 11:14:54;;;;;;;5.90;3.00;;;20.00;99.90;;;;;;5022820;28;20184;-79
2023/07/24 11:17:19;;;;;;;4.07;3.30;;;19.90;99.90;;;;;;5012933;28;20671;-80
2023/07/24 11:19:46;;;;;;;4.17;2.30;;;19.70;99.90;;;;;;5018466;28;20246;-79
2023/07/24 11:22:12;;;;;;;3.43;2.20;;;19.70;99.90;;;;;;5014516;28;20621;-79
2023/07/24 11:24:47;;;;;;;2.50;2.20;;;19.50;99.90;;;;;;5013655;28;20185;-79
2023/07/24 11:27:17;;;;;;;6.80;2.73;;;19.40;99.90;;;;;;5014255;28;20172;-79
2023/07/24 11:29:49;;;;;;;4.53;2.77;;;19.40;99.90;;;;;;5013939;28;20197;-79
2023/07/24 11:32:20;;;;;;;4.10;1.63;;;19.10;99.90;;;;;;5015878;28;20537;-78
2023/07/24 11:34:48;;;;;;;3.07;1.63;;;18.80;99.90;;;;;;5016281;28;20276;-79
2023/07/24 11:37:14;;;;;;;2.23;1.60;;;18.40;99.90;;;;;;5017244;28;20188;-79
2023/07/24 11:39:40;;;;;;;2.47;2.00;;;18.40;99.90;;;;;;5016944;28;20684;-79
2023/07/24 11:42:06;;;;;;;3.03;1.70;;;18.30;99.90;;;;;;5017210;28;20181;-79
2023/07/24 11:44:31;;;;;;;2.87;1.77;;;18.20;99.90;;;;;;5017173;28;20174;-79
2023/07/24 11:47:04;;;;;;;7.20;1.93;;;18.20;99.90;;;;;;5018958;28;20235;-79
2023/07/24 11:49:33;;;;;;;4.67;2.77;;;18.20;99.90;;;;;;5020200;28;20652;-79
2023/07/24 11:52:06;;;;;;;6.13;2.70;;;18.30;99.90;;;;;;5019494;28;20173;-79
2023/07/24 11:54:35;;;;;;;5.40;2.63;;;18.30;99.90;;;;;;5019326;28;20188;-79
2023/07/24 11:57:01;;;;;;;6.57;2.83;;;18.30;99.90;;;;;;5019669;28;20177;-79
2023/07/24 11:59:26;;;;;;;4.50;2.47;;;18.40;99.90;;;;;;5017595;28;20696;-79
2023/07/24 12:01:52;;;;;;;3.60;2.33;;;18.30;99.90;;;;;;5018859;28;20246;-78
2023/07/24 12:04:18;;;;;;;4.50;2.03;;;18.50;99.90;;;;;;5021134;28;20173;-79
2023/07/24 12:06:44;;;;;;;2.77;1.97;;;18.50;99.90;;;;;;5021330;28;20527;-79
2023/07/24 12:09:11;;;;;;;3.43;2.00;;;18.60;99.90;;;;;;5023759;28;20183;-77
2023/07/24 12:11:41;;;;;;;4.60;1.80;;;18.70;99.90;;;;;;5025385;28;20275;-78
2023/07/24 12:14:06;;;;;;;2.80;1.60;;;18.70;99.90;;;;;;5024370;28;20250;-79
2023/07/24 12:16:34;;;;;;;3.07;1.83;;;18.70;99.90;;;;;;5024008;28;20641;-79
2023/07/24 12:18:59;;;;;;;2.83;1.73;;;18.70;99.90;;;;;;5023667;28;20235;-79
2023/07/24 12:21:25;;;;;;;3.90;1.97;;;18.80;99.90;;;;;;5026069;28;20249;-79
2023/07/24 12:23:50;;;;;;;3.40;2.03;;;18.80;99.90;;;;;;5023278;28;20268;-79
2023/07/24 12:26:16;;;;;;;2.80;1.80;;;18.90;99.90;;;;;;5026473;28;20252;-78
2023/07/24 12:28:41;;;;;;;7.17;2.00;;;18.90;99.90;;;;;;5026074;28;20197;-79
2023/07/24 12:31:07;;;;;;;3.30;1.90;;;18.90;99.90;;;;;;5025467;28;20265;-79
2023/07/24 12:33:32;;;;;;;3.60;2.00;;;19.00;99.90;;;;;;5025799;28;20703;-79
2023/07/24 12:35:58;;;;;;;4.07;1.63;;;18.90;99.90;;;;;;5025463;28;20283;-79
2023/07/24 12:38:23;;;;;;;3.93;1.90;;;18.90;99.90;;;;;;5023463;28;20559;-79
2023/07/24 12:40:49;;;;;;;4.70;1.67;;;18.80;99.90;;;;;;5023216;28;20228;-79
2023/07/24 12:43:15;;;;;;;5.17;2.20;;;18.80;99.90;;;;;;5022511;28;20192;-79